Weather History for Carmi, IL

Change the Weather History Date:

Friday, July 12, 2013

  Actual Average (KEVV) Record (KEVV)
Temperature  
Mean Temperature 74 °F 78 °F  
Max Temperature 86 °F 89 °F 107 °F (1936)
Min Temperature 63 °F 68 °F 55 °F (1963)
Degree Days  
Heating Degree Days 0 0  
Month to date heating degree days 0  
Since 1 June heating degree days 6  
Since 1 July heating degree days 0  
Cooling Degree Days 10 13  
Month to date cooling degree days 156  
Year to date cooling degree days 589  
Since 1 June cooling degree days 454  
Growing Degree Days 24 (Base 50)    
Moisture  
Dew Point 59 °F    
Average Humidity 62    
Maximum Humidity 88    
Minimum Humidity 32    
Precipitation  
Precipitation 0.00 in 0.13 in 2.77 in (2006)
Month to date precipitation 1.59  
Year to date precipitation 25.61  
Snow  
Snow 0.00 in 0.00 in - ()
Month to date snowfall 0.0  
Since 1 June snowfall 0.0  
Since 1 July snowfall 0.0  
Snow Depth -    
Sea Level Pressure  
Sea Level Pressure 30.06 in    
Wind  
Wind Speed 6 mph (NNE)    
Max Wind Speed 13 mph    
Max Gust Speed 17 mph    
Visibility 10 miles    
Events      
T = Trace of Precipitation, MM = Missing Value Source: NWS Daily Summary

Daily Weather History Graph

Daily Weather History Graph

Search for Another Location

Airport:

Trip Planner

Search our weather history database for the weather conditions in past years. The results will help you decide how hot, cold, wet, or windy it might be!

Date:

Astronomy

Jul. 12, 2013 Rise Set
Actual Time 5:39 AM CDT 8:16 PM CDT
Civil Twilight 5:09 AM CDT 8:46 PM CDT
Nautical Twilight 4:30 AM CDT 9:25 PM CDT
Astronomical Twilight 3:47 AM CDT 10:07 PM CDT
Moon 9:51 AM CDT (7/12) 10:31 PM CDT (7/12)
Length of Visible Light 15h 37m
Length of Day
14h 36m
Waxing Crescent, 17% of the Moon is Illuminated
Jul 12
Waxing Crescent
Jul 15
First Quarter
Jul 22
Full
Jul 29
Last Quarter
Aug 6
New

Hourly Weather History & Observations

Time (CDT) Temp. Heat Index Dew Point Humidity Pressure Visibility Wind Dir Wind Speed Gust Speed Precip Events Conditions
12:15 AM 66.9 °F - 60.4 °F 80% 30.04 in 10.0 mi North 4.6 mph - N/A   Clear
12:35 AM 66.9 °F - 60.4 °F 80% 30.04 in 10.0 mi North 3.5 mph - N/A   Clear
12:55 AM 66.2 °F - 60.3 °F 81% 30.05 in 10.0 mi North 5.8 mph - N/A   Clear
1:15 AM 65.8 °F - 60.3 °F 82% 30.05 in 10.0 mi North 4.6 mph - N/A   Clear
1:35 AM 65.8 °F - 59.9 °F 81% 30.04 in 10.0 mi North 5.8 mph - N/A   Clear
1:55 AM 65.3 °F - 59.7 °F 82% 30.05 in 10.0 mi North 4.6 mph - N/A   Clear
2:15 AM 64.9 °F - 59.5 °F 83% 30.05 in 10.0 mi NNE 4.6 mph - N/A   Clear
2:35 AM 64.2 °F - 59.2 °F 84% 30.05 in 10.0 mi North 4.6 mph - N/A   Clear
2:55 AM 64.8 °F - 59.9 °F 84% 30.05 in 10.0 mi North 5.8 mph - N/A   Clear
3:15 AM 64.0 °F - 59.2 °F 84% 30.05 in 10.0 mi North 4.6 mph - N/A   Clear
3:35 AM 64.0 °F - 59.4 °F 85% 30.05 in 10.0 mi North 4.6 mph - N/A   Clear
3:55 AM 63.7 °F - 59.4 °F 86% 30.05 in 10.0 mi NNE 6.9 mph - N/A   Clear
4:15 AM 63.9 °F - 59.0 °F 84% 30.05 in 10.0 mi North 5.8 mph - N/A   Clear
4:35 AM 64.0 °F - 59.0 °F 84% 30.06 in 10.0 mi North 5.8 mph - N/A   Clear
4:55 AM 63.3 °F - 58.8 °F 85% 30.07 in 10.0 mi North 6.9 mph - N/A   Clear
5:15 AM 63.1 °F - 59.0 °F 86% 30.07 in 10.0 mi North 6.9 mph - N/A   Clear
5:35 AM 63.3 °F - 59.0 °F 86% 30.08 in 10.0 mi North 8.1 mph - N/A   Clear
5:55 AM 63.5 °F - 59.0 °F 85% 30.08 in 10.0 mi North 6.9 mph - N/A   Clear
6:15 AM 63.1 °F - 59.5 °F 88% 30.08 in 10.0 mi NE 4.6 mph - N/A   Clear
6:35 AM 64.0 °F - 59.5 °F 85% 30.09 in 10.0 mi NE 5.8 mph - N/A   Clear
6:55 AM 65.1 °F - 60.4 °F 85% 30.09 in 10.0 mi NNE 4.6 mph - N/A   Clear
7:15 AM 66.4 °F - 61.0 °F 83% 30.09 in 10.0 mi NE 3.5 mph - N/A   Clear
7:35 AM 68.0 °F - 61.5 °F 80% 30.10 in 10.0 mi NE 6.9 mph - N/A   Clear
7:55 AM 69.6 °F - 61.9 °F 76% 30.10 in 5.0 mi NE 5.8 mph - N/A   Haze
8:15 AM 71.6 °F - 62.1 °F 72% 30.10 in 10.0 mi NNE 4.6 mph - N/A   Clear
8:35 AM 73.4 °F - 61.0 °F 65% 30.11 in 10.0 mi NE 5.8 mph - N/A   Clear
8:55 AM 75.0 °F - 60.8 °F 61% 30.11 in 10.0 mi NE 5.8 mph - N/A   Clear
9:15 AM 76.5 °F - 60.1 °F 57% 30.11 in 10.0 mi NE 8.1 mph - N/A   Clear
9:35 AM 77.7 °F - 60.4 °F 55% 30.10 in 10.0 mi ENE 6.9 mph - N/A   Clear
9:55 AM 79.0 °F - 60.6 °F 53% 30.10 in 10.0 mi ENE 6.9 mph - N/A   Clear
10:15 AM 79.7 °F - 59.4 °F 50% 30.10 in 10.0 mi NNE 9.2 mph - N/A   Clear
10:35 AM 80.4 °F 80.7 °F 57.0 °F 45% 30.09 in 10.0 mi ENE 11.5 mph 17.3 mph N/A   Clear
10:55 AM 81.5 °F 81.6 °F 58.3 °F 45% 30.09 in 10.0 mi ENE 8.1 mph - N/A   Clear
11:15 AM 81.7 °F 81.5 °F 57.2 °F 43% 30.09 in 10.0 mi NE 9.2 mph - N/A   Clear
11:35 AM 82.0 °F 81.6 °F 56.5 °F 41% 30.09 in 10.0 mi NNE 10.4 mph - N/A   Clear
11:55 AM 82.2 °F 81.8 °F 56.5 °F 41% 30.09 in 10.0 mi NE 10.4 mph - N/A   Clear
12:15 PM 82.8 °F 82.1 °F 56.5 °F 40% 30.08 in 10.0 mi NE 9.2 mph - N/A   Clear
12:35 PM 84.0 °F 83.5 °F 57.9 °F 41% 30.09 in 10.0 mi NNE 10.4 mph - N/A   Scattered Clouds
12:55 PM 83.7 °F 83.0 °F 56.8 °F 40% 30.08 in 10.0 mi North 9.2 mph - N/A   Scattered Clouds
1:15 PM 83.8 °F 83.3 °F 58.1 °F 41% 30.08 in 10.0 mi NE 11.5 mph - N/A   Clear
1:35 PM 84.2 °F 83.3 °F 57.0 °F 39% 30.07 in 10.0 mi NNE 12.7 mph - N/A   Clear
1:55 PM 84.6 °F 83.5 °F 56.3 °F 38% 30.07 in 10.0 mi NE 11.5 mph - N/A   Clear
2:15 PM 84.4 °F 83.1 °F 54.7 °F 36% 30.07 in 10.0 mi NNE 6.9 mph - N/A   Clear
2:35 PM 85.1 °F 83.8 °F 55.4 °F 36% 30.06 in 10.0 mi NE 9.2 mph - N/A   Clear
2:55 PM 85.3 °F 83.5 °F 53.4 °F 33% 30.06 in 10.0 mi NE 6.9 mph 11.5 mph N/A   Clear
3:15 PM 85.1 °F 83.6 °F 54.3 °F 35% 30.06 in 10.0 mi NNE 4.6 mph - N/A   Clear
3:35 PM 85.5 °F 84.0 °F 54.7 °F 35% 30.06 in 10.0 mi NNE 8.1 mph - N/A   Clear
3:55 PM 85.5 °F 83.8 °F 54.3 °F 34% 30.05 in 10.0 mi NE 5.8 mph - N/A   Clear
4:15 PM 85.5 °F 83.8 °F 54.3 °F 34% 30.04 in 10.0 mi NNE 6.9 mph - N/A   Clear
4:35 PM 85.6 °F 83.8 °F 53.4 °F 33% 30.04 in 10.0 mi NE 11.5 mph - N/A   Clear
4:55 PM 85.8 °F 83.9 °F 53.1 °F 32% 30.03 in 10.0 mi NNE 6.9 mph - N/A   Clear
5:15 PM 86.0 °F 84.2 °F 54.1 °F 33% 30.04 in 10.0 mi North 5.8 mph - N/A   Clear
5:35 PM 85.1 °F 84.1 °F 56.5 °F 38% 30.03 in 10.0 mi NE 9.2 mph - N/A   Clear
5:55 PM 84.7 °F 83.6 °F 56.1 °F 37% 30.03 in 10.0 mi NNE 6.9 mph - N/A   Clear
6:15 PM 84.4 °F 83.5 °F 57.0 °F 39% 30.02 in 10.0 mi NNE 5.8 mph - N/A   Clear
6:35 PM 83.3 °F 83.2 °F 59.4 °F 44% 30.02 in 10.0 mi NNE 3.5 mph - N/A   Clear
6:55 PM 83.3 °F 82.5 °F 56.1 °F 39% 30.02 in 10.0 mi North 6.9 mph - N/A   Clear
7:15 PM 82.9 °F 82.4 °F 56.7 °F 41% 30.02 in 10.0 mi North 5.8 mph - N/A   Clear
7:35 PM 80.1 °F 81.1 °F 61.2 °F 52% 30.02 in 10.0 mi North 4.6 mph - N/A   Clear
7:55 PM 78.8 °F - 60.4 °F 53% 30.02 in 10.0 mi North 4.6 mph - N/A   Clear
8:15 PM 76.1 °F - 62.6 °F 63% 30.02 in 10.0 mi NNE 3.5 mph - N/A   Clear
8:35 PM 73.6 °F - 64.6 °F 73% 30.02 in 10.0 mi NNE 3.5 mph - N/A   Clear
8:55 PM 73.2 °F - 64.0 °F 73% 30.04 in 10.0 mi North 3.5 mph - N/A   Clear
9:15 PM 72.5 °F - 62.8 °F 71% 30.04 in 10.0 mi North 4.6 mph - N/A   Clear
9:35 PM 72.0 °F - 63.1 °F 74% 30.04 in 10.0 mi North 3.5 mph - N/A   Clear
9:55 PM 71.8 °F - 62.2 °F 72% 30.05 in 10.0 mi North 4.6 mph - N/A   Clear
10:15 PM 70.5 °F - 63.1 °F 77% 30.05 in 10.0 mi NNE 4.6 mph - N/A   Clear
10:35 PM 68.4 °F - 62.8 °F 82% 30.06 in 10.0 mi NNE 4.6 mph - N/A   Clear
10:55 PM 67.8 °F - 61.7 °F 81% 30.05 in 10.0 mi NNE 4.6 mph - N/A   Clear
11:15 PM 67.3 °F - 62.8 °F 85% 30.05 in 10.0 mi North 4.6 mph - N/A   Clear
11:35 PM 67.6 °F - 61.7 °F 81% 30.05 in 10.0 mi North 3.5 mph - N/A   Clear
11:55 PM 67.1 °F - 62.1 °F 84% 30.06 in 10.0 mi North 3.5 mph - N/A   Clear